sensor_id;sensor_type;location;lat;lon;timestamp;P1;durP1;ratioP1;P2;durP2;ratioP2
76846;SDS011;65813;49.546;8.644;2024-02-26T04:48:05;2.08;;;0.88;;
76846;SDS011;65813;49.546;8.644;2024-02-26T04:52:05;2.90;;;1.38;;
76846;SDS011;65813;49.546;8.644;2024-02-26T04:56:06;2.67;;;1.10;;
76846;SDS011;65813;49.546;8.644;2024-02-26T05:00:06;2.07;;;1.10;;
76846;SDS011;65813;49.546;8.644;2024-02-26T05:04:08;1.95;;;1.00;;
76846;SDS011;65813;49.546;8.644;2024-02-26T05:08:08;1.50;;;0.90;;
76846;SDS011;65813;49.546;8.644;2024-02-26T05:12:09;1.75;;;0.77;;
76846;SDS011;65813;49.546;8.644;2024-02-26T05:16:09;1.77;;;1.00;;
76846;SDS011;65813;49.546;8.644;2024-02-26T05:20:10;1.83;;;0.80;;
76846;SDS011;65813;49.546;8.644;2024-02-26T05:24:10;1.33;;;0.70;;
76846;SDS011;65813;49.546;8.644;2024-02-26T05:28:11;1.38;;;1.00;;
76846;SDS011;65813;49.546;8.644;2024-02-26T05:32:11;0.90;;;0.60;;
76846;SDS011;65813;49.546;8.644;2024-02-26T05:36:17;1.03;;;0.67;;
76846;SDS011;65813;49.546;8.644;2024-02-26T05:40:18;2.92;;;1.00;;
76846;SDS011;65813;49.546;8.644;2024-02-26T05:44:19;0.88;;;0.65;;
76846;SDS011;65813;49.546;8.644;2024-02-26T05:48:20;1.88;;;0.77;;
76846;SDS011;65813;49.546;8.644;2024-02-26T05:52:21;1.27;;;0.80;;
76846;SDS011;65813;49.546;8.644;2024-02-26T05:56:21;2.00;;;0.80;;
76846;SDS011;65813;49.546;8.644;2024-02-26T06:00:22;1.80;;;0.70;;
76846;SDS011;65813;49.546;8.644;2024-02-26T06:04:22;3.03;;;1.13;;
76846;SDS011;65813;49.546;8.644;2024-02-26T06:08:23;1.80;;;0.90;;
76846;SDS011;65813;49.546;8.644;2024-02-26T06:12:23;1.53;;;1.00;;
76846;SDS011;65813;49.546;8.644;2024-02-26T06:16:23;2.15;;;0.90;;
76846;SDS011;65813;49.546;8.644;2024-02-26T06:20:24;1.48;;;0.90;;
76846;SDS011;65813;49.546;8.644;2024-02-26T06:24:24;1.47;;;0.83;;
76846;SDS011;65813;49.546;8.644;2024-02-26T06:28:24;2.10;;;0.73;;
76846;SDS011;65813;49.546;8.644;2024-02-26T06:32:25;1.67;;;0.93;;
76846;SDS011;65813;49.546;8.644;2024-02-26T06:36:29;2.63;;;1.00;;
76846;SDS011;65813;49.546;8.644;2024-02-26T06:40:31;1.77;;;1.10;;
76846;SDS011;65813;49.546;8.644;2024-02-26T06:44:31;1.43;;;0.70;;
76846;SDS011;65813;49.546;8.644;2024-02-26T06:48:32;1.85;;;1.00;;
76846;SDS011;65813;49.546;8.644;2024-02-26T06:52:32;1.63;;;0.77;;
76846;SDS011;65813;49.546;8.644;2024-02-26T06:56:32;1.97;;;0.90;;
76846;SDS011;65813;49.546;8.644;2024-02-26T07:00:33;2.00;;;1.00;;
76846;SDS011;65813;49.546;8.644;2024-02-26T07:04:33;1.70;;;0.97;;
76846;SDS011;65813;49.546;8.644;2024-02-26T07:08:34;1.42;;;0.88;;
76846;SDS011;65813;49.546;8.644;2024-02-26T07:12:35;2.07;;;0.70;;
76846;SDS011;65813;49.546;8.644;2024-02-26T07:16:35;1.67;;;1.27;;
76846;SDS011;65813;49.546;8.644;2024-02-26T07:20:35;2.37;;;1.10;;
76846;SDS011;65813;49.546;8.644;2024-02-26T07:24:36;1.67;;;0.80;;
76846;SDS011;65813;49.546;8.644;2024-02-26T07:28:37;2.78;;;1.30;;
76846;SDS011;65813;49.546;8.644;2024-02-26T07:32:38;1.98;;;1.17;;
76846;SDS011;65813;49.546;8.644;2024-02-26T07:36:39;2.80;;;1.30;;
76846;SDS011;65813;49.546;8.644;2024-02-26T07:40:39;3.40;;;1.60;;
76846;SDS011;65813;49.546;8.644;2024-02-26T07:44:40;3.53;;;1.37;;
76846;SDS011;65813;49.546;8.644;2024-02-26T07:48:42;1.13;;;0.80;;
76846;SDS011;65813;49.546;8.644;2024-02-26T07:52:43;1.25;;;0.90;;
76846;SDS011;65813;49.546;8.644;2024-02-26T07:56:44;1.08;;;0.63;;
76846;SDS011;65813;49.546;8.644;2024-02-26T08:00:45;2.28;;;0.93;;
76846;SDS011;65813;49.546;8.644;2024-02-26T08:04:46;2.42;;;1.20;;
76846;SDS011;65813;49.546;8.644;2024-02-26T08:08:46;2.87;;;0.90;;
76846;SDS011;65813;49.546;8.644;2024-02-26T08:12:47;1.97;;;1.00;;
76846;SDS011;65813;49.546;8.644;2024-02-26T08:16:47;2.22;;;0.93;;
76846;SDS011;65813;49.546;8.644;2024-02-26T08:20:48;1.75;;;0.90;;
76846;SDS011;65813;49.546;8.644;2024-02-26T08:24:50;2.53;;;1.00;;
76846;SDS011;65813;49.546;8.644;2024-02-26T08:28:51;1.50;;;0.80;;
76846;SDS011;65813;49.546;8.644;2024-02-26T08:32:52;2.13;;;1.30;;
76846;SDS011;65813;49.546;8.644;2024-02-26T08:36:52;2.40;;;1.00;;
76846;SDS011;65813;49.546;8.644;2024-02-26T08:40:52;1.77;;;0.87;;
76846;SDS011;65813;49.546;8.644;2024-02-26T08:44:53;2.80;;;1.03;;
76846;SDS011;65813;49.546;8.644;2024-02-26T08:48:54;2.30;;;1.10;;
76846;SDS011;65813;49.546;8.644;2024-02-26T08:52:55;1.33;;;0.80;;
76846;SDS011;65813;49.546;8.644;2024-02-26T08:56:55;2.23;;;0.90;;
76846;SDS011;65813;49.546;8.644;2024-02-26T09:00:55;1.73;;;1.03;;
76846;SDS011;65813;49.546;8.644;2024-02-26T09:04:55;1.80;;;0.80;;
76846;SDS011;65813;49.546;8.644;2024-02-26T09:08:57;3.10;;;1.05;;
76846;SDS011;65813;49.546;8.644;2024-02-26T09:12:57;2.13;;;1.10;;
76846;SDS011;65813;49.546;8.644;2024-02-26T09:16:57;1.83;;;1.00;;
76846;SDS011;65813;49.546;8.644;2024-02-26T09:20:58;1.57;;;0.70;;
76846;SDS011;65813;49.546;8.644;2024-02-26T09:24:58;1.38;;;0.80;;
76846;SDS011;65813;49.546;8.644;2024-02-26T09:28:58;1.43;;;1.00;;
76846;SDS011;65813;49.546;8.644;2024-02-26T09:32:59;2.70;;;0.90;;
76846;SDS011;65813;49.546;8.644;2024-02-26T09:37:00;2.17;;;1.20;;
76846;SDS011;65813;49.546;8.644;2024-02-26T09:41:01;1.75;;;1.02;;
76846;SDS011;65813;49.546;8.644;2024-02-26T09:45:01;2.03;;;0.80;;
76846;SDS011;65813;49.546;8.644;2024-02-26T09:49:08;4.15;;;1.77;;
76846;SDS011;65813;49.546;8.644;2024-02-26T09:53:10;2.30;;;1.10;;
76846;SDS011;65813;49.546;8.644;2024-02-26T09:57:13;3.33;;;1.35;;
76846;SDS011;65813;49.546;8.644;2024-02-26T10:01:17;1.63;;;1.00;;
76846;SDS011;65813;49.546;8.644;2024-02-26T10:05:18;2.30;;;1.17;;
76846;SDS011;65813;49.546;8.644;2024-02-26T10:09:22;1.55;;;1.10;;
76846;SDS011;65813;49.546;8.644;2024-02-26T10:13:24;1.35;;;0.88;;
76846;SDS011;65813;49.546;8.644;2024-02-26T10:17:25;3.17;;;1.20;;
76846;SDS011;65813;49.546;8.644;2024-02-26T10:21:26;2.90;;;1.20;;
76846;SDS011;65813;49.546;8.644;2024-02-26T10:25:27;1.73;;;1.08;;
76846;SDS011;65813;49.546;8.644;2024-02-26T10:29:28;1.45;;;1.02;;
76846;SDS011;65813;49.546;8.644;2024-02-26T10:33:29;2.58;;;1.30;;
76846;SDS011;65813;49.546;8.644;2024-02-26T10:37:29;1.40;;;1.00;;
76846;SDS011;65813;49.546;8.644;2024-02-26T10:41:32;2.25;;;1.13;;
76846;SDS011;65813;49.546;8.644;2024-02-26T10:45:34;1.65;;;1.15;;
76846;SDS011;65813;49.546;8.644;2024-02-26T10:49:35;2.17;;;1.00;;
76846;SDS011;65813;49.546;8.644;2024-02-26T10:53:35;2.38;;;1.00;;
76846;SDS011;65813;49.546;8.644;2024-02-26T10:57:38;1.65;;;0.98;;
76846;SDS011;65813;49.546;8.644;2024-02-26T11:01:40;2.78;;;1.35;;
76846;SDS011;65813;49.546;8.644;2024-02-26T11:05:41;1.63;;;0.90;;
76846;SDS011;65813;49.546;8.644;2024-02-26T11:09:42;1.88;;;1.00;;
76846;SDS011;65813;49.546;8.644;2024-02-26T11:13:47;1.45;;;1.00;;
76846;SDS011;65813;49.546;8.644;2024-02-26T11:17:52;1.17;;;0.80;;
76846;SDS011;65813;49.546;8.644;2024-02-26T11:21:53;1.98;;;0.80;;
76846;SDS011;65813;49.546;8.644;2024-02-26T11:25:54;2.53;;;1.15;;
76846;SDS011;65813;49.546;8.644;2024-02-26T11:29:57;1.55;;;0.98;;
76846;SDS011;65813;49.546;8.644;2024-02-26T11:34:01;1.10;;;0.80;;
76846;SDS011;65813;49.546;8.644;2024-02-26T11:38:03;1.77;;;1.00;;
76846;SDS011;65813;49.546;8.644;2024-02-26T11:42:05;5.65;;;1.17;;
76846;SDS011;65813;49.546;8.644;2024-02-26T11:46:12;1.88;;;1.00;;
76846;SDS011;65813;49.546;8.644;2024-02-26T11:50:38;1.60;;;0.73;;
76846;SDS011;65813;49.546;8.644;2024-02-26T11:58:52;1.30;;;0.93;;
76846;SDS011;65813;49.546;8.644;2024-02-26T12:02:55;1.52;;;0.75;;
76846;SDS011;65813;49.546;8.644;2024-02-26T12:07:01;1.25;;;0.80;;
76846;SDS011;65813;49.546;8.644;2024-02-26T12:11:03;2.10;;;1.00;;
76846;SDS011;65813;49.546;8.644;2024-02-26T12:15:04;1.33;;;0.80;;
76846;SDS011;65813;49.546;8.644;2024-02-26T12:19:05;0.85;;;0.75;;
76846;SDS011;65813;49.546;8.644;2024-02-26T12:23:07;2.47;;;1.00;;
76846;SDS011;65813;49.546;8.644;2024-02-26T12:27:07;2.07;;;0.87;;
76846;SDS011;65813;49.546;8.644;2024-02-26T12:31:07;1.73;;;0.97;;
76846;SDS011;65813;49.546;8.644;2024-02-26T12:35:08;2.50;;;1.10;;
76846;SDS011;65813;49.546;8.644;2024-02-26T12:39:08;2.45;;;1.20;;
76846;SDS011;65813;49.546;8.644;2024-02-26T12:43:11;1.52;;;0.93;;
76846;SDS011;65813;49.546;8.644;2024-02-26T12:47:13;1.33;;;0.85;;
76846;SDS011;65813;49.546;8.644;2024-02-26T12:51:16;1.65;;;0.90;;
76846;SDS011;65813;49.546;8.644;2024-02-26T12:55:20;2.72;;;0.95;;
76846;SDS011;65813;49.546;8.644;2024-02-26T12:59:21;1.48;;;0.95;;
76846;SDS011;65813;49.546;8.644;2024-02-26T13:03:22;2.20;;;0.85;;
76846;SDS011;65813;49.546;8.644;2024-02-26T13:07:23;1.67;;;1.00;;
76846;SDS011;65813;49.546;8.644;2024-02-26T13:11:23;1.58;;;0.80;;
76846;SDS011;65813;49.546;8.644;2024-02-26T13:15:25;1.40;;;0.90;;
76846;SDS011;65813;49.546;8.644;2024-02-26T13:19:26;2.17;;;0.97;;
76846;SDS011;65813;49.546;8.644;2024-02-26T13:23:27;1.42;;;0.90;;
76846;SDS011;65813;49.546;8.644;2024-02-26T13:27:28;0.63;;;0.53;;
76846;SDS011;65813;49.546;8.644;2024-02-26T13:31:29;1.33;;;0.60;;
76846;SDS011;65813;49.546;8.644;2024-02-26T13:35:29;1.45;;;0.88;;
76846;SDS011;65813;49.546;8.644;2024-02-26T13:39:30;1.50;;;0.60;;
76846;SDS011;65813;49.546;8.644;2024-02-26T13:43:30;1.33;;;0.80;;
76846;SDS011;65813;49.546;8.644;2024-02-26T13:47:30;0.77;;;0.60;;
76846;SDS011;65813;49.546;8.644;2024-02-26T13:51:31;0.97;;;0.70;;
76846;SDS011;65813;49.546;8.644;2024-02-26T13:55:35;0.63;;;0.43;;
76846;SDS011;65813;49.546;8.644;2024-02-26T13:59:36;0.90;;;0.50;;
76846;SDS011;65813;49.546;8.644;2024-02-26T14:03:37;0.95;;;0.65;;
76846;SDS011;65813;49.546;8.644;2024-02-26T14:07:37;0.73;;;0.73;;
76846;SDS011;65813;49.546;8.644;2024-02-26T14:11:37;1.80;;;0.77;;
76846;SDS011;65813;49.546;8.644;2024-02-26T14:15:39;1.33;;;0.60;;
76846;SDS011;65813;49.546;8.644;2024-02-26T14:19:40;1.75;;;0.70;;
76846;SDS011;65813;49.546;8.644;2024-02-26T14:23:44;1.25;;;0.70;;
76846;SDS011;65813;49.546;8.644;2024-02-26T14:27:44;0.60;;;0.60;;
76846;SDS011;65813;49.546;8.644;2024-02-26T14:31:45;1.90;;;0.70;;
76846;SDS011;65813;49.546;8.644;2024-02-26T14:35:46;1.20;;;0.70;;
76846;SDS011;65813;49.546;8.644;2024-02-26T14:39:46;1.63;;;0.90;;
76846;SDS011;65813;49.546;8.644;2024-02-26T14:43:48;1.35;;;0.70;;
76846;SDS011;65813;49.546;8.644;2024-02-26T14:47:51;0.80;;;0.70;;
76846;SDS011;65813;49.546;8.644;2024-02-26T14:51:51;1.10;;;0.80;;
76846;SDS011;65813;49.546;8.644;2024-02-26T14:55:52;1.70;;;0.82;;
76846;SDS011;65813;49.546;8.644;2024-02-26T14:59:52;1.33;;;0.87;;
76846;SDS011;65813;49.546;8.644;2024-02-26T15:03:53;0.60;;;0.60;;
76846;SDS011;65813;49.546;8.644;2024-02-26T15:07:53;0.83;;;0.60;;
76846;SDS011;65813;49.546;8.644;2024-02-26T15:11:53;1.50;;;0.90;;
76846;SDS011;65813;49.546;8.644;2024-02-26T15:15:54;3.00;;;1.30;;
76846;SDS011;65813;49.546;8.644;2024-02-26T15:19:54;2.50;;;1.20;;
76846;SDS011;65813;49.546;8.644;2024-02-26T15:23:56;2.30;;;1.02;;
76846;SDS011;65813;49.546;8.644;2024-02-26T15:27:57;1.90;;;1.20;;
76846;SDS011;65813;49.546;8.644;2024-02-26T15:31:57;2.57;;;1.27;;
76846;SDS011;65813;49.546;8.644;2024-02-26T15:35:58;3.08;;;1.10;;
76846;SDS011;65813;49.546;8.644;2024-02-26T15:39:58;2.57;;;1.40;;
76846;SDS011;65813;49.546;8.644;2024-02-26T15:43:58;3.37;;;1.40;;
76846;SDS011;65813;49.546;8.644;2024-02-26T15:48:00;2.83;;;1.40;;
76846;SDS011;65813;49.546;8.644;2024-02-26T15:52:00;2.70;;;1.40;;
76846;SDS011;65813;49.546;8.644;2024-02-26T15:56:01;2.38;;;1.33;;
76846;SDS011;65813;49.546;8.644;2024-02-26T16:00:01;2.60;;;1.30;;
76846;SDS011;65813;49.546;8.644;2024-02-26T16:04:05;3.30;;;1.50;;
76846;SDS011;65813;49.546;8.644;2024-02-26T16:08:06;2.87;;;1.50;;
76846;SDS011;65813;49.546;8.644;2024-02-26T16:12:14;5.28;;;1.67;;
76846;SDS011;65813;49.546;8.644;2024-02-26T16:16:26;2.78;;;1.33;;
76846;SDS011;65813;49.546;8.644;2024-02-26T16:20:32;4.05;;;1.85;;
76846;SDS011;65813;49.546;8.644;2024-02-26T16:24:33;3.80;;;1.88;;
76846;SDS011;65813;49.546;8.644;2024-02-26T16:28:33;2.87;;;1.47;;
76846;SDS011;65813;49.546;8.644;2024-02-26T16:32:34;4.37;;;2.07;;
76846;SDS011;65813;49.546;8.644;2024-02-26T16:36:34;4.05;;;2.13;;
76846;SDS011;65813;49.546;8.644;2024-02-26T16:40:35;3.97;;;2.00;;
76846;SDS011;65813;49.546;8.644;2024-02-26T16:44:36;5.53;;;2.30;;
76846;SDS011;65813;49.546;8.644;2024-02-26T16:48:38;4.80;;;2.58;;
76846;SDS011;65813;49.546;8.644;2024-02-26T16:52:38;5.27;;;2.97;;
76846;SDS011;65813;49.546;8.644;2024-02-26T16:56:39;5.93;;;2.92;;
76846;SDS011;65813;49.546;8.644;2024-02-26T17:00:40;6.10;;;3.10;;
76846;SDS011;65813;49.546;8.644;2024-02-26T17:04:40;6.23;;;2.80;;
76846;SDS011;65813;49.546;8.644;2024-02-26T17:08:40;5.10;;;2.10;;
76846;SDS011;65813;49.546;8.644;2024-02-26T17:12:42;6.28;;;3.40;;
76846;SDS011;65813;49.546;8.644;2024-02-26T17:16:43;6.10;;;3.13;;
76846;SDS011;65813;49.546;8.644;2024-02-26T17:20:44;5.45;;;2.83;;
76846;SDS011;65813;49.546;8.644;2024-02-26T17:24:44;4.45;;;2.10;;
76846;SDS011;65813;49.546;8.644;2024-02-26T17:28:46;5.35;;;2.70;;
76846;SDS011;65813;49.546;8.644;2024-02-26T17:32:47;4.60;;;2.60;;
76846;SDS011;65813;49.546;8.644;2024-02-26T17:36:51;6.40;;;2.90;;
76846;SDS011;65813;49.546;8.644;2024-02-26T17:40:53;6.20;;;3.03;;
76846;SDS011;65813;49.546;8.644;2024-02-26T17:44:54;6.05;;;3.45;;
76846;SDS011;65813;49.546;8.644;2024-02-26T17:48:54;5.57;;;3.22;;
76846;SDS011;65813;49.546;8.644;2024-02-26T17:52:54;5.63;;;3.27;;
76846;SDS011;65813;49.546;8.644;2024-02-26T17:56:57;7.22;;;3.45;;
76846;SDS011;65813;49.546;8.644;2024-02-26T18:00:58;5.47;;;3.05;;
76846;SDS011;65813;49.546;8.644;2024-02-26T18:04:59;4.85;;;3.00;;
76846;SDS011;65813;49.546;8.644;2024-02-26T18:08:59;6.72;;;3.15;;
76846;SDS011;65813;49.546;8.644;2024-02-26T18:13:00;6.72;;;3.38;;
76846;SDS011;65813;49.546;8.644;2024-02-26T18:17:00;6.57;;;2.90;;
76846;SDS011;65813;49.546;8.644;2024-02-26T18:21:01;7.15;;;3.00;;
76846;SDS011;65813;49.546;8.644;2024-02-26T18:25:01;6.67;;;3.20;;
76846;SDS011;65813;49.546;8.644;2024-02-26T18:29:02;5.95;;;3.08;;
76846;SDS011;65813;49.546;8.644;2024-02-26T18:33:04;5.57;;;2.72;;
76846;SDS011;65813;49.546;8.644;2024-02-26T18:37:05;6.90;;;2.95;;
76846;SDS011;65813;49.546;8.644;2024-02-26T18:41:07;6.03;;;3.10;;
76846;SDS011;65813;49.546;8.644;2024-02-26T18:45:08;4.90;;;2.90;;
76846;SDS011;65813;49.546;8.644;2024-02-26T18:49:12;6.22;;;3.20;;
76846;SDS011;65813;49.546;8.644;2024-02-26T18:53:13;6.22;;;2.70;;
76846;SDS011;65813;49.546;8.644;2024-02-26T18:57:13;5.37;;;3.17;;
76846;SDS011;65813;49.546;8.644;2024-02-26T19:01:14;5.67;;;3.03;;
76846;SDS011;65813;49.546;8.644;2024-02-26T19:05:14;6.00;;;3.03;;
76846;SDS011;65813;49.546;8.644;2024-02-26T19:09:14;5.67;;;2.50;;
76846;SDS011;65813;49.546;8.644;2024-02-26T19:13:15;4.85;;;2.47;;
76846;SDS011;65813;49.546;8.644;2024-02-26T19:17:15;4.55;;;2.50;;
76846;SDS011;65813;49.546;8.644;2024-02-26T19:21:16;4.00;;;2.35;;
76846;SDS011;65813;49.546;8.644;2024-02-26T19:25:17;6.38;;;2.97;;
76846;SDS011;65813;49.546;8.644;2024-02-26T19:29:17;4.90;;;2.60;;
76846;SDS011;65813;49.546;8.644;2024-02-26T19:33:17;5.10;;;2.60;;
76846;SDS011;65813;49.546;8.644;2024-02-26T19:37:20;4.47;;;2.10;;
76846;SDS011;65813;49.546;8.644;2024-02-26T19:41:21;4.47;;;2.45;;
76846;SDS011;65813;49.546;8.644;2024-02-26T19:45:21;5.40;;;2.80;;
76846;SDS011;65813;49.546;8.644;2024-02-26T19:49:22;5.25;;;2.47;;
76846;SDS011;65813;49.546;8.644;2024-02-26T19:53:22;4.83;;;2.60;;
76846;SDS011;65813;49.546;8.644;2024-02-26T19:57:23;5.97;;;3.28;;
76846;SDS011;65813;49.546;8.644;2024-02-26T20:01:23;6.90;;;2.95;;
76846;SDS011;65813;49.546;8.644;2024-02-26T20:05:24;5.50;;;2.92;;
76846;SDS011;65813;49.546;8.644;2024-02-26T20:09:25;5.93;;;3.63;;
76846;SDS011;65813;49.546;8.644;2024-02-26T20:13:31;5.88;;;3.35;;
76846;SDS011;65813;49.546;8.644;2024-02-26T20:17:32;5.43;;;2.90;;
76846;SDS011;65813;49.546;8.644;2024-02-26T20:21:32;5.63;;;2.97;;
76846;SDS011;65813;49.546;8.644;2024-02-26T20:25:32;4.60;;;2.33;;
76846;SDS011;65813;49.546;8.644;2024-02-26T20:29:35;5.28;;;2.67;;
76846;SDS011;65813;49.546;8.644;2024-02-26T20:33:37;4.18;;;2.53;;
76846;SDS011;65813;49.546;8.644;2024-02-26T20:37:40;5.43;;;2.80;;
76846;SDS011;65813;49.546;8.644;2024-02-26T20:41:43;5.60;;;2.88;;
76846;SDS011;65813;49.546;8.644;2024-02-26T20:45:43;6.25;;;2.90;;
76846;SDS011;65813;49.546;8.644;2024-02-26T20:49:49;5.22;;;3.00;;
76846;SDS011;65813;49.546;8.644;2024-02-26T20:53:49;6.88;;;3.50;;
76846;SDS011;65813;49.546;8.644;2024-02-26T20:57:50;5.88;;;3.33;;
76846;SDS011;65813;49.546;8.644;2024-02-26T21:01:50;5.97;;;2.78;;
76846;SDS011;65813;49.546;8.644;2024-02-26T21:05:52;5.53;;;2.87;;
76846;SDS011;65813;49.546;8.644;2024-02-26T21:09:52;6.10;;;3.30;;
76846;SDS011;65813;49.546;8.644;2024-02-26T21:13:54;6.00;;;2.78;;
76846;SDS011;65813;49.546;8.644;2024-02-26T21:17:54;5.82;;;2.97;;
76846;SDS011;65813;49.546;8.644;2024-02-26T21:21:55;5.53;;;2.83;;
76846;SDS011;65813;49.546;8.644;2024-02-26T21:25:56;5.93;;;3.30;;
76846;SDS011;65813;49.546;8.644;2024-02-26T21:29:56;5.80;;;3.20;;
76846;SDS011;65813;49.546;8.644;2024-02-26T21:33:56;4.33;;;2.43;;
76846;SDS011;65813;49.546;8.644;2024-02-26T21:37:57;4.03;;;2.43;;
76846;SDS011;65813;49.546;8.644;2024-02-26T21:41:57;5.23;;;2.70;;
76846;SDS011;65813;49.546;8.644;2024-02-26T21:45:57;6.17;;;2.90;;
76846;SDS011;65813;49.546;8.644;2024-02-26T21:49:58;5.37;;;2.37;;
76846;SDS011;65813;49.546;8.644;2024-02-26T21:53:58;5.73;;;2.77;;
76846;SDS011;65813;49.546;8.644;2024-02-26T21:57:58;5.03;;;2.50;;
76846;SDS011;65813;49.546;8.644;2024-02-26T22:01:59;4.77;;;2.87;;
76846;SDS011;65813;49.546;8.644;2024-02-26T22:06:00;4.87;;;2.70;;
76846;SDS011;65813;49.546;8.644;2024-02-26T22:10:02;5.70;;;2.42;;
76846;SDS011;65813;49.546;8.644;2024-02-26T22:14:04;5.03;;;2.90;;
76846;SDS011;65813;49.546;8.644;2024-02-26T22:18:04;5.05;;;2.40;;
76846;SDS011;65813;49.546;8.644;2024-02-26T22:22:05;6.40;;;2.85;;
76846;SDS011;65813;49.546;8.644;2024-02-26T22:26:05;6.15;;;3.33;;
76846;SDS011;65813;49.546;8.644;2024-02-26T22:30:06;7.00;;;3.10;;
76846;SDS011;65813;49.546;8.644;2024-02-26T22:34:07;5.13;;;2.70;;
76846;SDS011;65813;49.546;8.644;2024-02-26T22:38:08;5.20;;;3.23;;
76846;SDS011;65813;49.546;8.644;2024-02-26T22:42:08;6.03;;;2.93;;
